Itapora, Brazil
Current Conditions -  °F | °C
As of 1:00 PM on Friday 28 Nov 2014 (Local Time) from SBCG Reporting Station
Broken Clouds Broken Clouds  
Wind Chill: 86°   Ceiling: 4200
Heat Index: 90°   Visibility: 6mi
Dew Point: 70°   Wind: 5mph
Humidity: 58%   Direction: 360°N
Pressure: 29.91"   Gusts: NA
Location:  22.08°S, 54.79°W
Report Text: SBCG 281600Z 36004KT 9999 BKN042 30/21 Q1013
Loading
Personal Weather Stations






























Interactive Weather Map New forecast layout! Learn more

10-Day Weather Forecast

Advertisements
Track Severe Weather on mobile